sensor_id;sensor_type;location;lat;lon;timestamp;temperature;humidity
68485;DHT22;55472;50.060;21.960;2022-08-19T00:01:42;22.00;74.80
68485;DHT22;55472;50.060;21.960;2022-08-19T00:04:11;22.00;75.10
68485;DHT22;55472;50.060;21.960;2022-08-19T00:06:40;21.90;75.60
68485;DHT22;55472;50.060;21.960;2022-08-19T00:09:09;21.90;75.00
68485;DHT22;55472;50.060;21.960;2022-08-19T00:11:37;21.80;75.50
68485;DHT22;55472;50.060;21.960;2022-08-19T00:14:06;21.80;75.20
68485;DHT22;55472;50.060;21.960;2022-08-19T00:16:34;21.80;74.70
68485;DHT22;55472;50.060;21.960;2022-08-19T00:19:00;21.70;75.90
68485;DHT22;55472;50.060;21.960;2022-08-19T00:21:26;21.70;76.10
68485;DHT22;55472;50.060;21.960;2022-08-19T00:23:54;21.70;75.20
68485;DHT22;55472;50.060;21.960;2022-08-19T00:26:25;21.70;75.60
68485;DHT22;55472;50.060;21.960;2022-08-19T00:28:51;21.70;75.70
68485;DHT22;55472;50.060;21.960;2022-08-19T00:31:17;21.70;75.50
68485;DHT22;55472;50.060;21.960;2022-08-19T00:33:43;21.60;75.80
68485;DHT22;55472;50.060;21.960;2022-08-19T00:36:10;21.60;75.60
68485;DHT22;55472;50.060;21.960;2022-08-19T00:38:37;21.60;75.70
68485;DHT22;55472;50.060;21.960;2022-08-19T00:41:07;21.60;75.70
68485;DHT22;55472;50.060;21.960;2022-08-19T00:43:34;21.60;75.60
68485;DHT22;55472;50.060;21.960;2022-08-19T00:46:00;21.60;75.30
68485;DHT22;55472;50.060;21.960;2022-08-19T00:48:31;21.60;75.70
68485;DHT22;55472;50.060;21.960;2022-08-19T00:50:58;21.60;76.10
68485;DHT22;55472;50.060;21.960;2022-08-19T00:53:27;21.50;76.10
68485;DHT22;55472;50.060;21.960;2022-08-19T00:55:58;21.50;76.00
68485;DHT22;55472;50.060;21.960;2022-08-19T00:58:28;21.40;76.10
68485;DHT22;55472;50.060;21.960;2022-08-19T01:00:55;21.40;76.10
68485;DHT22;55472;50.060;21.960;2022-08-19T01:03:21;21.40;76.20
68485;DHT22;55472;50.060;21.960;2022-08-19T01:05:49;21.40;75.90
68485;DHT22;55472;50.060;21.960;2022-08-19T01:08:17;21.30;76.10
68485;DHT22;55472;50.060;21.960;2022-08-19T01:10:52;21.30;76.20
68485;DHT22;55472;50.060;21.960;2022-08-19T01:13:23;21.30;76.70
68485;DHT22;55472;50.060;21.960;2022-08-19T01:15:55;21.30;76.70
68485;DHT22;55472;50.060;21.960;2022-08-19T01:18:27;21.20;76.50
68485;DHT22;55472;50.060;21.960;2022-08-19T01:20:56;21.30;76.30
68485;DHT22;55472;50.060;21.960;2022-08-19T01:23:24;21.20;75.60
68485;DHT22;55472;50.060;21.960;2022-08-19T01:26:14;21.10;76.40
68485;DHT22;55472;50.060;21.960;2022-08-19T01:28:44;21.10;75.50
68485;DHT22;55472;50.060;21.960;2022-08-19T01:31:18;21.00;76.00
68485;DHT22;55472;50.060;21.960;2022-08-19T01:33:49;21.00;75.70
68485;DHT22;55472;50.060;21.960;2022-08-19T01:36:28;21.00;76.20
68485;DHT22;55472;50.060;21.960;2022-08-19T01:39:14;20.90;75.40
68485;DHT22;55472;50.060;21.960;2022-08-19T01:41:46;20.80;76.40
68485;DHT22;55472;50.060;21.960;2022-08-19T01:44:12;20.80;76.90
68485;DHT22;55472;50.060;21.960;2022-08-19T01:46:40;20.80;77.10
68485;DHT22;55472;50.060;21.960;2022-08-19T01:49:08;20.80;76.50
68485;DHT22;55472;50.060;21.960;2022-08-19T01:51:34;20.80;76.30
68485;DHT22;55472;50.060;21.960;2022-08-19T01:54:00;20.70;77.20
68485;DHT22;55472;50.060;21.960;2022-08-19T01:56:26;20.70;76.90
68485;DHT22;55472;50.060;21.960;2022-08-19T01:58:56;20.70;76.50
68485;DHT22;55472;50.060;21.960;2022-08-19T02:01:33;20.60;76.60
68485;DHT22;55472;50.060;21.960;2022-08-19T02:04:02;20.60;76.90
68485;DHT22;55472;50.060;21.960;2022-08-19T02:06:29;20.60;77.20
68485;DHT22;55472;50.060;21.960;2022-08-19T02:08:55;20.50;76.80
68485;DHT22;55472;50.060;21.960;2022-08-19T02:11:30;20.50;76.80
68485;DHT22;55472;50.060;21.960;2022-08-19T02:14:00;20.50;78.00
68485;DHT22;55472;50.060;21.960;2022-08-19T02:16:28;20.50;78.40
68485;DHT22;55472;50.060;21.960;2022-08-19T02:18:54;20.50;77.60
68485;DHT22;55472;50.060;21.960;2022-08-19T02:21:22;20.50;77.80
68485;DHT22;55472;50.060;21.960;2022-08-19T02:23:50;20.60;77.50
68485;DHT22;55472;50.060;21.960;2022-08-19T02:26:17;20.60;77.20
68485;DHT22;55472;50.060;21.960;2022-08-19T02:28:44;20.60;77.40
68485;DHT22;55472;50.060;21.960;2022-08-19T02:31:15;20.50;76.90
68485;DHT22;55472;50.060;21.960;2022-08-19T02:33:44;20.50;76.60
68485;DHT22;55472;50.060;21.960;2022-08-19T02:36:12;20.40;77.30
68485;DHT22;55472;50.060;21.960;2022-08-19T02:38:39;20.40;77.40
68485;DHT22;55472;50.060;21.960;2022-08-19T02:41:11;20.30;77.90
68485;DHT22;55472;50.060;21.960;2022-08-19T02:43:40;20.30;78.90
68485;DHT22;55472;50.060;21.960;2022-08-19T02:46:17;20.30;78.80
68485;DHT22;55472;50.060;21.960;2022-08-19T02:48:56;20.30;78.40
68485;DHT22;55472;50.060;21.960;2022-08-19T02:51:34;20.20;79.50
68485;DHT22;55472;50.060;21.960;2022-08-19T02:54:03;20.20;79.20
68485;DHT22;55472;50.060;21.960;2022-08-19T02:56:29;20.30;78.60
68485;DHT22;55472;50.060;21.960;2022-08-19T02:58:56;20.20;78.90
68485;DHT22;55472;50.060;21.960;2022-08-19T03:01:24;20.20;79.40
68485;DHT22;55472;50.060;21.960;2022-08-19T03:03:56;20.20;79.50
68485;DHT22;55472;50.060;21.960;2022-08-19T03:06:23;20.20;79.60
68485;DHT22;55472;50.060;21.960;2022-08-19T03:08:50;20.20;79.30
68485;DHT22;55472;50.060;21.960;2022-08-19T03:13:52;20.10;79.80
68485;DHT22;55472;50.060;21.960;2022-08-19T03:16:20;19.90;81.90
68485;DHT22;55472;50.060;21.960;2022-08-19T03:18:48;19.80;82.80
68485;DHT22;55472;50.060;21.960;2022-08-19T03:21:17;19.80;82.70
68485;DHT22;55472;50.060;21.960;2022-08-19T03:23:45;19.80;82.30
68485;DHT22;55472;50.060;21.960;2022-08-19T03:26:11;19.90;82.20
68485;DHT22;55472;50.060;21.960;2022-08-19T03:28:37;19.90;81.30
68485;DHT22;55472;50.060;21.960;2022-08-19T03:31:07;19.90;80.70
68485;DHT22;55472;50.060;21.960;2022-08-19T03:33:35;19.90;80.40
68485;DHT22;55472;50.060;21.960;2022-08-19T03:36:12;19.90;80.70
68485;DHT22;55472;50.060;21.960;2022-08-19T03:38:48;19.90;81.20
68485;DHT22;55472;50.060;21.960;2022-08-19T03:41:19;20.00;81.40
68485;DHT22;55472;50.060;21.960;2022-08-19T03:43:53;20.00;80.90
68485;DHT22;55472;50.060;21.960;2022-08-19T03:46:22;20.00;80.60
68485;DHT22;55472;50.060;21.960;2022-08-19T03:48:52;20.10;80.40
68485;DHT22;55472;50.060;21.960;2022-08-19T03:51:22;20.10;80.50
68485;DHT22;55472;50.060;21.960;2022-08-19T03:53:54;20.10;80.00
68485;DHT22;55472;50.060;21.960;2022-08-19T03:56:21;20.10;80.50
68485;DHT22;55472;50.060;21.960;2022-08-19T03:58:47;20.10;81.00
68485;DHT22;55472;50.060;21.960;2022-08-19T04:01:18;20.10;80.10
68485;DHT22;55472;50.060;21.960;2022-08-19T04:03:48;20.10;80.40
68485;DHT22;55472;50.060;21.960;2022-08-19T04:06:29;20.10;80.80
68485;DHT22;55472;50.060;21.960;2022-08-19T04:08:57;20.10;81.10
68485;DHT22;55472;50.060;21.960;2022-08-19T04:11:33;20.10;81.50
68485;DHT22;55472;50.060;21.960;2022-08-19T04:14:01;20.20;81.40
68485;DHT22;55472;50.060;21.960;2022-08-19T04:16:28;20.20;81.40
68485;DHT22;55472;50.060;21.960;2022-08-19T04:18:55;20.30;81.40
68485;DHT22;55472;50.060;21.960;2022-08-19T04:21:24;20.20;82.10
68485;DHT22;55472;50.060;21.960;2022-08-19T04:23:52;20.30;82.10
68485;DHT22;55472;50.060;21.960;2022-08-19T04:26:22;20.30;82.10
68485;DHT22;55472;50.060;21.960;2022-08-19T04:28:49;20.40;82.10
68485;DHT22;55472;50.060;21.960;2022-08-19T04:31:20;20.50;82.20
68485;DHT22;55472;50.060;21.960;2022-08-19T04:33:48;20.60;82.00
68485;DHT22;55472;50.060;21.960;2022-08-19T04:36:19;20.60;81.90
68485;DHT22;55472;50.060;21.960;2022-08-19T04:38:48;20.60;81.90
68485;DHT22;55472;50.060;21.960;2022-08-19T04:41:16;20.60;82.20
68485;DHT22;55472;50.060;21.960;2022-08-19T04:44:00;20.70;82.30
68485;DHT22;55472;50.060;21.960;2022-08-19T04:46:28;20.70;82.40
68485;DHT22;55472;50.060;21.960;2022-08-19T04:48:56;20.80;82.20
68485;DHT22;55472;50.060;21.960;2022-08-19T04:51:23;20.90;82.10
68485;DHT22;55472;50.060;21.960;2022-08-19T04:53:49;20.90;82.20
68485;DHT22;55472;50.060;21.960;2022-08-19T04:56:16;20.90;82.50
68485;DHT22;55472;50.060;21.960;2022-08-19T04:58:45;21.00;82.40
68485;DHT22;55472;50.060;21.960;2022-08-19T05:01:18;21.00;82.10
68485;DHT22;55472;50.060;21.960;2022-08-19T05:03:46;20.90;82.40
68485;DHT22;55472;50.060;21.960;2022-08-19T05:06:14;20.80;82.90
68485;DHT22;55472;50.060;21.960;2022-08-19T05:08:49;20.80;82.50
68485;DHT22;55472;50.060;21.960;2022-08-19T05:13:54;20.80;83.00
68485;DHT22;55472;50.060;21.960;2022-08-19T05:16:21;20.80;83.30
68485;DHT22;55472;50.060;21.960;2022-08-19T05:18:48;20.90;83.50
68485;DHT22;55472;50.060;21.960;2022-08-19T05:21:34;20.90;83.30
68485;DHT22;55472;50.060;21.960;2022-08-19T05:24:21;21.10;83.10
68485;DHT22;55472;50.060;21.960;2022-08-19T05:26:49;21.20;82.80
68485;DHT22;55472;50.060;21.960;2022-08-19T05:29:19;21.30;82.20
68485;DHT22;55472;50.060;21.960;2022-08-19T05:31:47;21.30;82.40
68485;DHT22;55472;50.060;21.960;2022-08-19T05:34:18;21.40;81.30
68485;DHT22;55472;50.060;21.960;2022-08-19T05:36:48;21.50;81.30
68485;DHT22;55472;50.060;21.960;2022-08-19T05:39:17;21.60;81.20
68485;DHT22;55472;50.060;21.960;2022-08-19T05:41:48;21.70;80.40
68485;DHT22;55472;50.060;21.960;2022-08-19T05:44:16;21.80;80.10
68485;DHT22;55472;50.060;21.960;2022-08-19T05:46:46;21.90;80.00
68485;DHT22;55472;50.060;21.960;2022-08-19T05:49:20;22.00;79.90
68485;DHT22;55472;50.060;21.960;2022-08-19T05:51:47;22.10;80.10
68485;DHT22;55472;50.060;21.960;2022-08-19T05:54:13;22.20;78.90
68485;DHT22;55472;50.060;21.960;2022-08-19T05:56:41;22.40;79.30
68485;DHT22;55472;50.060;21.960;2022-08-19T05:59:09;22.50;79.30
68485;DHT22;55472;50.060;21.960;2022-08-19T06:01:38;22.70;78.40
68485;DHT22;55472;50.060;21.960;2022-08-19T06:04:07;22.80;77.30
68485;DHT22;55472;50.060;21.960;2022-08-19T06:06:34;23.00;76.70
68485;DHT22;55472;50.060;21.960;2022-08-19T06:09:05;23.20;76.30
68485;DHT22;55472;50.060;21.960;2022-08-19T06:11:41;23.30;75.60
68485;DHT22;55472;50.060;21.960;2022-08-19T06:14:17;23.40;74.50
68485;DHT22;55472;50.060;21.960;2022-08-19T06:16:47;23.60;74.30
68485;DHT22;55472;50.060;21.960;2022-08-19T06:19:15;23.70;74.30
68485;DHT22;55472;50.060;21.960;2022-08-19T06:21:45;23.80;74.40
68485;DHT22;55472;50.060;21.960;2022-08-19T06:24:15;23.90;73.50
68485;DHT22;55472;50.060;21.960;2022-08-19T06:26:45;24.10;73.80
68485;DHT22;55472;50.060;21.960;2022-08-19T06:29:14;24.20;72.20
68485;DHT22;55472;50.060;21.960;2022-08-19T06:31:44;24.30;71.90
68485;DHT22;55472;50.060;21.960;2022-08-19T06:34:12;24.50;72.20
68485;DHT22;55472;50.060;21.960;2022-08-19T06:36:42;24.60;72.90
68485;DHT22;55472;50.060;21.960;2022-08-19T06:39:19;24.70;71.70
68485;DHT22;55472;50.060;21.960;2022-08-19T06:41:50;24.80;70.90
68485;DHT22;55472;50.060;21.960;2022-08-19T06:44:20;25.00;71.40
68485;DHT22;55472;50.060;21.960;2022-08-19T06:46:47;25.20;71.90
68485;DHT22;55472;50.060;21.960;2022-08-19T06:49:15;25.40;70.20
68485;DHT22;55472;50.060;21.960;2022-08-19T06:51:44;25.60;69.60
68485;DHT22;55472;50.060;21.960;2022-08-19T06:54:16;25.70;69.20
68485;DHT22;55472;50.060;21.960;2022-08-19T06:56:43;25.90;68.60
68485;DHT22;55472;50.060;21.960;2022-08-19T06:59:13;25.90;68.60
68485;DHT22;55472;50.060;21.960;2022-08-19T07:01:46;26.10;68.30
68485;DHT22;55472;50.060;21.960;2022-08-19T07:04:16;26.20;66.40
68485;DHT22;55472;50.060;21.960;2022-08-19T07:06:44;26.50;67.50
68485;DHT22;55472;50.060;21.960;2022-08-19T07:09:13;26.70;65.20
68485;DHT22;55472;50.060;21.960;2022-08-19T07:11:48;26.80;64.80
68485;DHT22;55472;50.060;21.960;2022-08-19T07:14:16;27.00;62.00
68485;DHT22;55472;50.060;21.960;2022-08-19T07:16:44;27.20;62.90
68485;DHT22;55472;50.060;21.960;2022-08-19T07:19:12;27.30;62.10
68485;DHT22;55472;50.060;21.960;2022-08-19T07:21:38;27.50;61.00
68485;DHT22;55472;50.060;21.960;2022-08-19T07:24:04;27.50;59.90
68485;DHT22;55472;50.060;21.960;2022-08-19T07:26:33;27.60;59.70
68485;DHT22;55472;50.060;21.960;2022-08-19T07:29:01;27.70;60.20
68485;DHT22;55472;50.060;21.960;2022-08-19T07:31:28;27.80;59.20
68485;DHT22;55472;50.060;21.960;2022-08-19T07:33:55;27.90;59.30
68485;DHT22;55472;50.060;21.960;2022-08-19T07:36:26;28.00;60.30
68485;DHT22;55472;50.060;21.960;2022-08-19T07:38:59;28.20;58.20
68485;DHT22;55472;50.060;21.960;2022-08-19T07:41:28;28.30;58.20
68485;DHT22;55472;50.060;21.960;2022-08-19T07:44:00;28.40;58.00
68485;DHT22;55472;50.060;21.960;2022-08-19T07:46:33;28.50;59.30
68485;DHT22;55472;50.060;21.960;2022-08-19T07:49:01;28.70;59.30
68485;DHT22;55472;50.060;21.960;2022-08-19T07:51:28;28.90;58.20
68485;DHT22;55472;50.060;21.960;2022-08-19T07:53:54;29.10;58.10
68485;DHT22;55472;50.060;21.960;2022-08-19T07:56:21;29.30;56.90
68485;DHT22;55472;50.060;21.960;2022-08-19T07:58:49;29.50;56.40
68485;DHT22;55472;50.060;21.960;2022-08-19T08:01:22;29.70;56.80
68485;DHT22;55472;50.060;21.960;2022-08-19T08:03:52;29.90;55.50
68485;DHT22;55472;50.060;21.960;2022-08-19T08:06:37;30.10;55.40
68485;DHT22;55472;50.060;21.960;2022-08-19T08:09:29;30.10;52.30
68485;DHT22;55472;50.060;21.960;2022-08-19T08:12:09;30.20;52.20
68485;DHT22;55472;50.060;21.960;2022-08-19T08:14:49;30.30;52.50
68485;DHT22;55472;50.060;21.960;2022-08-19T08:17:23;30.50;53.10
68485;DHT22;55472;50.060;21.960;2022-08-19T08:19:50;30.70;52.70
68485;DHT22;55472;50.060;21.960;2022-08-19T08:22:20;30.90;51.30
68485;DHT22;55472;50.060;21.960;2022-08-19T08:25:15;30.90;50.40
68485;DHT22;55472;50.060;21.960;2022-08-19T08:27:46;31.20;50.90
68485;DHT22;55472;50.060;21.960;2022-08-19T08:30:21;31.40;50.80
68485;DHT22;55472;50.060;21.960;2022-08-19T08:32:49;31.70;50.80
68485;DHT22;55472;50.060;21.960;2022-08-19T08:35:19;31.80;50.30
68485;DHT22;55472;50.060;21.960;2022-08-19T08:37:47;32.10;50.40
68485;DHT22;55472;50.060;21.960;2022-08-19T08:46:17;33.00;48.80
68485;DHT22;55472;50.060;21.960;2022-08-19T08:49:45;33.60;47.50
68485;DHT22;55472;50.060;21.960;2022-08-19T08:52:26;34.60;44.50
68485;DHT22;55472;50.060;21.960;2022-08-19T08:54:57;35.90;42.50
68485;DHT22;55472;50.060;21.960;2022-08-19T08:57:29;36.80;41.40
68485;DHT22;55472;50.060;21.960;2022-08-19T09:00:06;38.10;39.80
68485;DHT22;55472;50.060;21.960;2022-08-19T09:02:36;38.70;38.90
68485;DHT22;55472;50.060;21.960;2022-08-19T09:05:02;39.50;37.60
68485;DHT22;55472;50.060;21.960;2022-08-19T09:10:44;41.90;36.30
68485;DHT22;55472;50.060;21.960;2022-08-19T09:13:26;42.80;33.60
68485;DHT22;55472;50.060;21.960;2022-08-19T09:16:03;43.10;32.50
68485;DHT22;55472;50.060;21.960;2022-08-19T09:18:39;42.80;33.10
68485;DHT22;55472;50.060;21.960;2022-08-19T09:21:11;43.00;32.90
68485;DHT22;55472;50.060;21.960;2022-08-19T09:23:39;43.30;33.10
68485;DHT22;55472;50.060;21.960;2022-08-19T09:26:10;44.00;32.10
68485;DHT22;55472;50.060;21.960;2022-08-19T09:28:40;44.40;32.50
68485;DHT22;55472;50.060;21.960;2022-08-19T09:31:24;44.90;31.30
68485;DHT22;55472;50.060;21.960;2022-08-19T09:33:53;45.10;30.30
68485;DHT22;55472;50.060;21.960;2022-08-19T09:36:34;45.60;30.00
68485;DHT22;55472;50.060;21.960;2022-08-19T09:39:05;43.90;30.60
68485;DHT22;55472;50.060;21.960;2022-08-19T09:41:32;43.20;32.40
68485;DHT22;55472;50.060;21.960;2022-08-19T09:43:58;41.30;33.60
68485;DHT22;55472;50.060;21.960;2022-08-19T09:46:27;40.40;35.20
68485;DHT22;55472;50.060;21.960;2022-08-19T09:48:54;39.40;36.50
68485;DHT22;55472;50.060;21.960;2022-08-19T09:51:25;38.80;36.90
68485;DHT22;55472;50.060;21.960;2022-08-19T09:53:54;37.70;37.90
68485;DHT22;55472;50.060;21.960;2022-08-19T09:56:24;36.60;39.10
68485;DHT22;55472;50.060;21.960;2022-08-19T09:58:51;35.90;40.10
68485;DHT22;55472;50.060;21.960;2022-08-19T10:01:20;36.10;39.90
68485;DHT22;55472;50.060;21.960;2022-08-19T10:03:50;36.10;40.30
68485;DHT22;55472;50.060;21.960;2022-08-19T10:06:20;36.10;41.30
68485;DHT22;55472;50.060;21.960;2022-08-19T10:08:51;36.20;40.30
68485;DHT22;55472;50.060;21.960;2022-08-19T10:11:19;36.00;41.80
68485;DHT22;55472;50.060;21.960;2022-08-19T10:13:45;36.50;40.80
68485;DHT22;55472;50.060;21.960;2022-08-19T10:16:14;36.80;39.60
68485;DHT22;55472;50.060;21.960;2022-08-19T10:18:43;36.10;40.60
68485;DHT22;55472;50.060;21.960;2022-08-19T10:23:38;35.10;42.20
68485;DHT22;55472;50.060;21.960;2022-08-19T10:26:06;34.90;42.10
68485;DHT22;55472;50.060;21.960;2022-08-19T10:28:36;34.60;43.30
68485;DHT22;55472;50.060;21.960;2022-08-19T10:31:11;34.20;45.10
68485;DHT22;55472;50.060;21.960;2022-08-19T10:33:39;34.20;44.70
68485;DHT22;55472;50.060;21.960;2022-08-19T10:36:14;34.10;45.10
68485;DHT22;55472;50.060;21.960;2022-08-19T10:38:47;34.10;45.60
68485;DHT22;55472;50.060;21.960;2022-08-19T10:41:19;34.50;43.70
68485;DHT22;55472;50.060;21.960;2022-08-19T10:43:49;34.60;44.10
68485;DHT22;55472;50.060;21.960;2022-08-19T10:46:20;35.00;43.30
68485;DHT22;55472;50.060;21.960;2022-08-19T10:48:47;35.00;43.70
68485;DHT22;55472;50.060;21.960;2022-08-19T10:51:14;35.10;42.90
68485;DHT22;55472;50.060;21.960;2022-08-19T10:54:00;35.30;41.00
68485;DHT22;55472;50.060;21.960;2022-08-19T10:56:27;35.40;41.30
68485;DHT22;55472;50.060;21.960;2022-08-19T10:59:13;35.60;42.50
68485;DHT22;55472;50.060;21.960;2022-08-19T11:01:41;35.50;41.50
68485;DHT22;55472;50.060;21.960;2022-08-19T11:04:08;35.10;42.60
68485;DHT22;55472;50.060;21.960;2022-08-19T11:06:40;35.10;43.60
68485;DHT22;55472;50.060;21.960;2022-08-19T11:09:08;35.20;43.50
68485;DHT22;55472;50.060;21.960;2022-08-19T11:11:34;35.10;42.00
68485;DHT22;55472;50.060;21.960;2022-08-19T11:14:12;35.00;43.60
68485;DHT22;55472;50.060;21.960;2022-08-19T11:16:41;35.00;43.00
68485;DHT22;55472;50.060;21.960;2022-08-19T11:19:09;34.80;44.00
68485;DHT22;55472;50.060;21.960;2022-08-19T11:21:41;34.80;44.50
68485;DHT22;55472;50.060;21.960;2022-08-19T11:24:11;34.80;44.30
68485;DHT22;55472;50.060;21.960;2022-08-19T11:26:44;34.70;43.70
68485;DHT22;55472;50.060;21.960;2022-08-19T11:29:12;34.50;42.20
68485;DHT22;55472;50.060;21.960;2022-08-19T11:31:41;34.20;42.50
68485;DHT22;55472;50.060;21.960;2022-08-19T11:34:11;34.20;43.30
68485;DHT22;55472;50.060;21.960;2022-08-19T11:36:43;34.30;43.70
68485;DHT22;55472;50.060;21.960;2022-08-19T11:39:12;34.20;42.90
68485;DHT22;55472;50.060;21.960;2022-08-19T11:41:39;34.00;42.30
68485;DHT22;55472;50.060;21.960;2022-08-19T11:44:06;34.00;41.40
68485;DHT22;55472;50.060;21.960;2022-08-19T11:46:34;33.90;41.10
68485;DHT22;55472;50.060;21.960;2022-08-19T11:49:02;34.10;42.00
68485;DHT22;55472;50.060;21.960;2022-08-19T11:51:29;34.30;42.60
68485;DHT22;55472;50.060;21.960;2022-08-19T11:53:56;34.40;42.60
68485;DHT22;55472;50.060;21.960;2022-08-19T11:56:25;34.30;43.80
68485;DHT22;55472;50.060;21.960;2022-08-19T11:58:53;34.40;44.40
68485;DHT22;55472;50.060;21.960;2022-08-19T12:01:24;34.50;43.70
68485;DHT22;55472;50.060;21.960;2022-08-19T12:03:52;34.60;44.00
68485;DHT22;55472;50.060;21.960;2022-08-19T12:06:22;34.70;42.30
68485;DHT22;55472;50.060;21.960;2022-08-19T12:08:51;34.50;42.10
68485;DHT22;55472;50.060;21.960;2022-08-19T12:11:17;34.40;42.80
68485;DHT22;55472;50.060;21.960;2022-08-19T12:13:43;34.40;43.20
68485;DHT22;55472;50.060;21.960;2022-08-19T12:16:46;34.30;42.90
68485;DHT22;55472;50.060;21.960;2022-08-19T12:19:05;34.20;42.80
68485;DHT22;55472;50.060;21.960;2022-08-19T12:21:33;34.00;43.10
68485;DHT22;55472;50.060;21.960;2022-08-19T12:24:01;34.20;43.70
68485;DHT22;55472;50.060;21.960;2022-08-19T12:26:29;34.40;44.10
68485;DHT22;55472;50.060;21.960;2022-08-19T12:28:57;34.40;43.40
68485;DHT22;55472;50.060;21.960;2022-08-19T12:31:26;34.20;43.00
68485;DHT22;55472;50.060;21.960;2022-08-19T12:33:54;34.00;42.90
68485;DHT22;55472;50.060;21.960;2022-08-19T12:36:22;33.90;45.20
68485;DHT22;55472;50.060;21.960;2022-08-19T12:38:49;34.00;44.80
68485;DHT22;55472;50.060;21.960;2022-08-19T12:41:16;34.10;43.60
68485;DHT22;55472;50.060;21.960;2022-08-19T12:43:45;34.10;43.70
68485;DHT22;55472;50.060;21.960;2022-08-19T12:46:11;34.10;43.30
68485;DHT22;55472;50.060;21.960;2022-08-19T12:48:38;34.10;42.90
68485;DHT22;55472;50.060;21.960;2022-08-19T12:51:09;34.10;44.40
68485;DHT22;55472;50.060;21.960;2022-08-19T12:53:38;34.00;43.10
68485;DHT22;55472;50.060;21.960;2022-08-19T12:56:04;33.90;43.80
68485;DHT22;55472;50.060;21.960;2022-08-19T12:58:31;33.70;43.50
68485;DHT22;55472;50.060;21.960;2022-08-19T13:01:06;33.50;43.50
68485;DHT22;55472;50.060;21.960;2022-08-19T13:03:33;33.30;43.60
68485;DHT22;55472;50.060;21.960;2022-08-19T13:05:59;33.30;44.40
68485;DHT22;55472;50.060;21.960;2022-08-19T13:08:25;33.50;44.40
68485;DHT22;55472;50.060;21.960;2022-08-19T13:10:51;33.50;42.50
68485;DHT22;55472;50.060;21.960;2022-08-19T13:13:17;33.30;43.20
68485;DHT22;55472;50.060;21.960;2022-08-19T13:15:43;33.30;43.50
68485;DHT22;55472;50.060;21.960;2022-08-19T13:18:11;33.20;42.60
68485;DHT22;55472;50.060;21.960;2022-08-19T13:20:39;33.20;44.70
68485;DHT22;55472;50.060;21.960;2022-08-19T13:23:09;33.30;43.40
68485;DHT22;55472;50.060;21.960;2022-08-19T13:25:35;33.00;44.40
68485;DHT22;55472;50.060;21.960;2022-08-19T13:28:02;32.90;45.00
68485;DHT22;55472;50.060;21.960;2022-08-19T13:30:28;32.80;45.80
68485;DHT22;55472;50.060;21.960;2022-08-19T13:33:12;33.00;45.10
68485;DHT22;55472;50.060;21.960;2022-08-19T13:35:46;33.00;44.00
68485;DHT22;55472;50.060;21.960;2022-08-19T13:38:19;32.90;45.30
68485;DHT22;55472;50.060;21.960;2022-08-19T13:40:46;33.00;46.10
68485;DHT22;55472;50.060;21.960;2022-08-19T13:43:15;33.00;45.40
68485;DHT22;55472;50.060;21.960;2022-08-19T13:45:41;33.00;45.00
68485;DHT22;55472;50.060;21.960;2022-08-19T13:48:08;33.00;45.50
68485;DHT22;55472;50.060;21.960;2022-08-19T13:50:39;33.00;44.40
68485;DHT22;55472;50.060;21.960;2022-08-19T13:53:10;33.00;45.80
68485;DHT22;55472;50.060;21.960;2022-08-19T13:55:38;33.10;46.20
68485;DHT22;55472;50.060;21.960;2022-08-19T13:58:05;33.00;45.60
68485;DHT22;55472;50.060;21.960;2022-08-19T14:00:35;33.00;45.20
68485;DHT22;55472;50.060;21.960;2022-08-19T14:03:04;32.90;44.80
68485;DHT22;55472;50.060;21.960;2022-08-19T14:05:30;32.80;46.40
68485;DHT22;55472;50.060;21.960;2022-08-19T14:07:57;32.70;45.40
68485;DHT22;55472;50.060;21.960;2022-08-19T14:10:24;32.60;45.20
68485;DHT22;55472;50.060;21.960;2022-08-19T14:12:55;32.40;45.20
68485;DHT22;55472;50.060;21.960;2022-08-19T14:15:24;32.30;45.10
68485;DHT22;55472;50.060;21.960;2022-08-19T14:17:51;32.30;46.80
68485;DHT22;55472;50.060;21.960;2022-08-19T14:20:19;32.30;47.10
68485;DHT22;55472;50.060;21.960;2022-08-19T14:22:46;32.40;46.20
68485;DHT22;55472;50.060;21.960;2022-08-19T14:25:20;32.40;46.90
68485;DHT22;55472;50.060;21.960;2022-08-19T14:27:50;32.40;46.80
68485;DHT22;55472;50.060;21.960;2022-08-19T14:30:23;32.30;47.30
68485;DHT22;55472;50.060;21.960;2022-08-19T14:32:58;32.30;46.90
68485;DHT22;55472;50.060;21.960;2022-08-19T14:35:27;32.20;46.80
68485;DHT22;55472;50.060;21.960;2022-08-19T14:37:56;32.20;46.20
68485;DHT22;55472;50.060;21.960;2022-08-19T14:40:25;32.20;47.40
68485;DHT22;55472;50.060;21.960;2022-08-19T14:42:53;32.20;47.50
68485;DHT22;55472;50.060;21.960;2022-08-19T14:45:26;32.10;46.80
68485;DHT22;55472;50.060;21.960;2022-08-19T14:47:53;32.10;47.70
68485;DHT22;55472;50.060;21.960;2022-08-19T14:50:19;32.10;47.60
68485;DHT22;55472;50.060;21.960;2022-08-19T14:52:46;32.10;47.80
68485;DHT22;55472;50.060;21.960;2022-08-19T14:55:14;32.10;46.60
68485;DHT22;55472;50.060;21.960;2022-08-19T14:57:41;32.00;47.30
68485;DHT22;55472;50.060;21.960;2022-08-19T15:00:09;32.00;47.30
68485;DHT22;55472;50.060;21.960;2022-08-19T15:02:38;31.90;46.60
68485;DHT22;55472;50.060;21.960;2022-08-19T15:05:05;31.90;46.60
68485;DHT22;55472;50.060;21.960;2022-08-19T15:07:31;31.80;46.10
68485;DHT22;55472;50.060;21.960;2022-08-19T15:09:57;31.70;46.90
68485;DHT22;55472;50.060;21.960;2022-08-19T15:12:24;31.70;47.00
68485;DHT22;55472;50.060;21.960;2022-08-19T15:14:51;31.60;47.40
68485;DHT22;55472;50.060;21.960;2022-08-19T15:17:17;31.60;48.30
68485;DHT22;55472;50.060;21.960;2022-08-19T15:19:45;31.60;48.50
68485;DHT22;55472;50.060;21.960;2022-08-19T15:22:11;31.50;49.00
68485;DHT22;55472;50.060;21.960;2022-08-19T15:24:37;31.50;48.50
68485;DHT22;55472;50.060;21.960;2022-08-19T15:27:04;31.40;48.70
68485;DHT22;55472;50.060;21.960;2022-08-19T15:29:31;31.40;49.10
68485;DHT22;55472;50.060;21.960;2022-08-19T15:31:58;31.30;49.30
68485;DHT22;55472;50.060;21.960;2022-08-19T15:34:24;31.30;48.70
68485;DHT22;55472;50.060;21.960;2022-08-19T15:36:52;31.20;48.60
68485;DHT22;55472;50.060;21.960;2022-08-19T15:39:18;31.20;49.00
68485;DHT22;55472;50.060;21.960;2022-08-19T15:41:45;31.20;49.20
68485;DHT22;55472;50.060;21.960;2022-08-19T15:44:15;31.10;48.70
68485;DHT22;55472;50.060;21.960;2022-08-19T15:46:45;31.10;48.10
68485;DHT22;55472;50.060;21.960;2022-08-19T15:49:14;31.00;48.90